Elkins, West Virginia
Current Conditions -  °F | °C
As of 4:51 PM on Sunday 21 Dec 2014 (Local Time) from KEKN Reporting Station
Clear Clear  
Wind Chill: 37°   Ceiling: Unl
Heat Index: 37°   Visibility: 10mi
Dew Point: 29°   Wind: 3mph
Humidity: 73%   Direction: 250°WSW
Pressure: 30.16"   Gusts: NA
Location:  38.92°N, 79.84°W
Report Text: KEKN 212151Z AUTO 25003KT 10SM CLR 03/M02 A3016 RMK AO2 SLP236 T00281017 TSNO $
Loading
Personal Weather Stations






























Interactive Weather Map New forecast layout! Learn more

10-Day Weather Forecast

Advertisements
Track Severe Weather on mobile